createdAt,value
2023-05-04T00:02:08.939Z,13.23
2023-05-04T00:04:53.468Z,13.23
2023-05-04T00:07:47.391Z,13.26
2023-05-04T00:10:29.220Z,13.20
2023-05-04T00:13:07.711Z,13.09
2023-05-04T00:15:52.081Z,13.11
2023-05-04T00:18:41.919Z,13.12
2023-05-04T00:21:19.889Z,13.08
2023-05-04T00:24:06.483Z,13.11
2023-05-04T00:26:51.307Z,13.04
2023-05-04T00:29:41.220Z,12.99
2023-05-04T00:32:31.145Z,13.00
2023-05-04T00:35:17.167Z,12.91
2023-05-04T00:38:00.710Z,12.97
2023-05-04T00:40:41.295Z,13.01
2023-05-04T00:43:21.820Z,12.97
2023-05-04T00:46:22.306Z,12.90
2023-05-04T00:49:07.180Z,12.89
2023-05-04T00:51:53.674Z,12.82
2023-05-04T00:54:37.930Z,12.79
2023-05-04T00:57:24.756Z,12.80
2023-05-04T01:00:17.172Z,12.81
2023-05-04T01:03:07.450Z,12.77
2023-05-04T01:05:57.858Z,12.70
2023-05-04T01:08:50.252Z,12.63
2023-05-04T01:11:53.217Z,12.64
2023-05-04T01:14:35.632Z,12.51
2023-05-04T01:17:24.737Z,12.53
2023-05-04T01:20:08.038Z,12.54
2023-05-04T01:22:51.961Z,12.57
2023-05-04T01:25:59.663Z,12.58
2023-05-04T01:29:09.469Z,12.59
2023-05-04T01:31:56.247Z,12.52
2023-05-04T01:34:37.451Z,12.52
2023-05-04T01:37:25.126Z,12.44
2023-05-04T01:40:05.504Z,12.41
2023-05-04T01:42:49.391Z,12.39
2023-05-04T01:45:30.772Z,12.30
2023-05-04T01:48:14.077Z,12.27
2023-05-04T01:51:03.766Z,12.28
2023-05-04T01:53:48.966Z,12.28
2023-05-04T01:56:29.608Z,12.24
2023-05-04T01:59:05.093Z,12.23
2023-05-04T02:01:48.727Z,12.14
2023-05-04T02:04:31.639Z,12.17
2023-05-04T02:07:13.095Z,12.13
2023-05-04T02:09:50.580Z,12.12
2023-05-04T02:12:36.415Z,12.11
2023-05-04T02:15:17.147Z,12.06
2023-05-04T02:17:58.065Z,12.07
2023-05-04T02:20:41.944Z,12.04
2023-05-04T02:23:31.383Z,12.02
2023-05-04T02:26:18.138Z,12.00
2023-05-04T02:29:04.215Z,11.97
2023-05-04T02:31:54.600Z,11.88
2023-05-04T02:34:35.047Z,11.81
2023-05-04T02:37:13.202Z,11.76
2023-05-04T02:40:03.454Z,11.68
2023-05-04T02:42:56.164Z,11.63
2023-05-04T02:45:31.089Z,11.48
2023-05-04T02:48:15.198Z,11.37
2023-05-04T02:50:56.596Z,11.28
2023-05-04T02:53:56.304Z,11.20
2023-05-04T02:56:39.386Z,11.13
2023-05-04T02:59:14.204Z,11.08
2023-05-04T03:02:01.495Z,11.04
2023-05-04T03:04:42.619Z,10.91
2023-05-04T03:07:31.434Z,10.80
2023-05-04T03:10:07.371Z,10.75
2023-05-04T03:12:48.489Z,10.70
2023-05-04T03:15:26.223Z,10.59
2023-05-04T03:18:14.396Z,10.59
2023-05-04T03:20:53.119Z,10.37
2023-05-04T03:23:39.735Z,10.30
2023-05-04T03:26:24.476Z,10.21
2023-05-04T03:29:00.459Z,10.19
2023-05-04T03:31:45.270Z,10.12
2023-05-04T03:34:34.110Z,10.17
2023-05-04T03:37:29.582Z,10.21
2023-05-04T03:40:21.167Z,10.17
2023-05-04T03:43:05.378Z,10.24
2023-05-04T03:46:01.613Z,10.25
2023-05-04T03:48:44.305Z,10.28
2023-05-04T03:51:30.679Z,10.29
2023-05-04T03:54:22.473Z,10.36
2023-05-04T03:57:09.234Z,10.40
2023-05-04T04:00:05.880Z,10.46
2023-05-04T04:02:53.094Z,10.54
2023-05-04T04:05:39.323Z,10.65
2023-05-04T04:08:18.207Z,10.72
2023-05-04T04:11:07.102Z,10.75
2023-05-04T04:13:53.736Z,10.84
2023-05-04T04:16:40.806Z,10.92
2023-05-04T04:19:21.607Z,10.96
2023-05-04T04:22:08.583Z,10.99
2023-05-04T04:24:47.183Z,10.90
2023-05-04T04:27:41.273Z,10.84
2023-05-04T04:30:18.817Z,11.04
2023-05-04T04:33:07.132Z,11.03
2023-05-04T04:35:53.559Z,11.03
2023-05-04T04:38:38.018Z,11.08
2023-05-04T04:41:20.288Z,11.16
2023-05-04T04:44:07.024Z,11.37
2023-05-04T04:46:52.938Z,11.43
2023-05-04T04:49:43.579Z,11.67
2023-05-04T04:52:26.654Z,11.93
2023-05-04T04:55:07.580Z,12.14
2023-05-04T04:57:59.570Z,12.44
2023-05-04T05:00:35.734Z,12.76
2023-05-04T05:03:17.791Z,12.98
2023-05-04T05:06:24.846Z,13.17
2023-05-04T05:09:03.474Z,13.33
2023-05-04T05:11:45.203Z,13.36
2023-05-04T05:14:27.527Z,13.62
2023-05-04T05:17:16.281Z,14.00
2023-05-04T05:20:06.415Z,14.40
2023-05-04T05:22:49.637Z,14.84
2023-05-04T05:25:37.026Z,15.21
2023-05-04T05:28:25.153Z,15.53
2023-05-04T05:31:07.276Z,15.78
2023-05-04T05:33:56.092Z,15.87
2023-05-04T05:36:49.511Z,16.20
2023-05-04T05:39:26.958Z,16.24
2023-05-04T05:42:03.749Z,16.61
2023-05-04T05:44:49.406Z,16.97
2023-05-04T05:47:30.195Z,17.29
2023-05-04T05:50:08.871Z,17.44
2023-05-04T05:52:49.474Z,17.38
2023-05-04T05:55:27.241Z,17.73
2023-05-04T05:58:11.039Z,17.71
2023-05-04T06:00:55.233Z,18.05
2023-05-04T06:03:36.438Z,18.02
2023-05-04T06:06:17.240Z,18.36
2023-05-04T06:09:04.008Z,18.61
2023-05-04T06:11:52.421Z,18.40
2023-05-04T06:14:39.202Z,18.52
2023-05-04T06:17:22.619Z,18.27
2023-05-04T06:20:14.228Z,18.56
2023-05-04T06:23:01.192Z,18.72
2023-05-04T06:25:46.220Z,18.77
2023-05-04T06:28:29.942Z,18.58
2023-05-04T06:31:15.177Z,18.97
2023-05-04T06:34:01.435Z,19.05
2023-05-04T06:36:49.211Z,18.71
2023-05-04T06:39:41.488Z,18.80
2023-05-04T06:42:29.267Z,18.11
2023-05-04T06:45:20.396Z,17.58
2023-05-04T06:48:06.829Z,18.06
2023-05-04T06:50:55.458Z,18.72
2023-05-04T06:53:46.174Z,18.87
2023-05-04T06:56:25.203Z,18.62
2023-05-04T06:59:12.943Z,18.09
2023-05-04T07:02:10.612Z,17.76
2023-05-04T07:05:03.218Z,17.84
2023-05-04T07:07:51.798Z,18.03
2023-05-04T07:10:31.799Z,18.07
2023-05-04T07:13:15.513Z,17.81
2023-05-04T07:15:59.224Z,17.70
2023-05-04T07:18:52.855Z,17.69
2023-05-04T07:21:36.669Z,17.78
2023-05-04T07:24:54.733Z,17.85
2023-05-04T07:27:37.199Z,17.84
2023-05-04T07:30:26.351Z,18.05
2023-05-04T07:33:14.912Z,18.07
2023-05-04T07:36:25.012Z,18.06
2023-05-04T07:39:05.074Z,17.82
2023-05-04T07:41:51.680Z,17.81
2023-05-04T07:44:32.747Z,17.74
2023-05-04T07:47:15.983Z,17.86
2023-05-04T07:50:11.425Z,18.03
2023-05-04T07:52:56.432Z,17.70
2023-05-04T07:55:47.236Z,18.17
2023-05-04T07:58:29.288Z,18.15
2023-05-04T08:01:11.205Z,18.37
2023-05-04T08:03:57.550Z,18.62
2023-05-04T08:06:54.170Z,19.01
2023-05-04T08:09:43.612Z,18.92
2023-05-04T08:12:29.884Z,19.24
2023-05-04T08:15:15.862Z,19.42
2023-05-04T08:18:05.220Z,19.23
2023-05-04T08:20:43.601Z,18.70
2023-05-04T08:23:26.048Z,18.68
2023-05-04T08:26:07.482Z,18.86
2023-05-04T08:28:45.658Z,18.89
2023-05-04T08:31:23.477Z,18.78
2023-05-04T08:34:01.213Z,18.88
2023-05-04T08:36:43.135Z,19.14
2023-05-04T08:39:32.192Z,19.05
2023-05-04T08:42:16.072Z,19.20
2023-05-04T08:45:02.554Z,18.92
2023-05-04T08:47:46.386Z,19.67
2023-05-04T08:50:27.599Z,19.82
2023-05-04T08:53:06.217Z,19.95
2023-05-04T08:55:56.108Z,20.13
2023-05-04T08:58:47.536Z,20.37
2023-05-04T09:01:31.289Z,20.64
2023-05-04T09:04:11.299Z,20.79
2023-05-04T09:06:57.052Z,21.24
2023-05-04T09:09:37.188Z,21.13
2023-05-04T09:12:13.371Z,21.66
2023-05-04T09:15:06.046Z,21.78
2023-05-04T09:17:56.901Z,21.56
2023-05-04T09:20:49.182Z,21.21
2023-05-04T09:23:27.244Z,21.14
2023-05-04T09:26:11.271Z,20.98
2023-05-04T09:28:57.471Z,20.51
2023-05-04T09:31:47.222Z,20.56
2023-05-04T09:34:32.478Z,20.79
2023-05-04T09:37:20.241Z,20.51
2023-05-04T09:40:21.231Z,20.19
2023-05-04T09:43:13.904Z,20.55
2023-05-04T09:46:03.068Z,20.66
2023-05-04T09:48:43.920Z,21.17
2023-05-04T09:51:36.166Z,20.78
2023-05-04T09:54:27.243Z,20.97
2023-05-04T09:57:13.570Z,20.83
2023-05-04T10:00:05.229Z,20.73
2023-05-04T10:02:48.198Z,21.12
2023-05-04T10:05:29.277Z,21.38
2023-05-04T10:08:12.043Z,21.76
2023-05-04T10:10:51.922Z,21.19
2023-05-04T10:13:26.679Z,21.61
2023-05-04T10:16:52.113Z,21.99
2023-05-04T10:20:05.704Z,21.40
2023-05-04T10:23:12.264Z,21.02
2023-05-04T10:26:13.682Z,21.01
2023-05-04T10:29:08.482Z,21.51
2023-05-04T10:31:53.616Z,21.53
2023-05-04T10:34:42.531Z,21.67
2023-05-04T10:37:31.832Z,22.12
2023-05-04T10:40:17.451Z,22.23
2023-05-04T10:43:00.540Z,22.45
2023-05-04T10:46:01.304Z,21.85
2023-05-04T10:48:54.122Z,21.91
2023-05-04T10:51:48.698Z,22.19
2023-05-04T10:54:37.207Z,22.45
2023-05-04T10:57:26.930Z,22.61
2023-05-04T11:00:19.196Z,23.05
2023-05-04T11:03:05.491Z,23.08
2023-05-04T11:06:00.221Z,23.18
2023-05-04T11:08:35.361Z,23.54
2023-05-04T11:11:16.371Z,23.36
2023-05-04T11:13:57.763Z,23.26
2023-05-04T11:16:38.963Z,23.43
2023-05-04T11:19:35.903Z,22.79
2023-05-04T11:22:21.035Z,23.09
2023-05-04T11:25:01.753Z,23.44
2023-05-04T11:27:45.270Z,23.56
2023-05-04T11:30:36.232Z,23.19
2023-05-04T11:33:28.129Z,23.50
2023-05-04T11:36:13.665Z,24.00
2023-05-04T11:39:06.212Z,23.67
2023-05-04T11:41:45.981Z,23.86
2023-05-04T11:44:31.820Z,23.99
2023-05-04T11:47:24.524Z,23.70
2023-05-04T11:50:11.768Z,24.00
2023-05-04T11:53:06.630Z,23.89
2023-05-04T11:55:53.240Z,24.32
2023-05-04T11:58:40.822Z,24.20
2023-05-04T12:01:25.027Z,24.36
2023-05-04T12:04:04.461Z,25.21
2023-05-04T12:06:40.547Z,25.22
2023-05-04T12:09:16.744Z,25.33
2023-05-04T12:12:08.666Z,24.88
2023-05-04T12:15:01.061Z,24.33
2023-05-04T12:17:54.291Z,25.16
2023-05-04T12:20:50.772Z,24.79
2023-05-04T12:23:33.986Z,24.05
2023-05-04T12:26:19.981Z,24.03
2023-05-04T12:29:00.604Z,24.15
2023-05-04T12:31:45.441Z,24.46
2023-05-04T12:34:32.574Z,24.04
2023-05-04T12:37:16.165Z,23.89
2023-05-04T12:39:57.156Z,23.16
2023-05-04T12:42:37.460Z,23.41
2023-05-04T12:45:26.262Z,23.38
2023-05-04T12:48:13.391Z,23.17
2023-05-04T12:51:00.400Z,23.52
2023-05-04T12:53:46.369Z,23.90
2023-05-04T12:56:33.632Z,23.65
2023-05-04T12:59:19.637Z,22.86
2023-05-04T13:02:03.421Z,22.73
2023-05-04T13:04:46.694Z,22.48
2023-05-04T13:07:37.192Z,22.47
2023-05-04T13:10:12.972Z,22.05
2023-05-04T13:12:59.502Z,22.33
2023-05-04T13:15:42.954Z,22.85
2023-05-04T13:18:30.980Z,22.93
2023-05-04T13:21:12.499Z,23.10
2023-05-04T13:23:58.197Z,23.55
2023-05-04T13:26:43.195Z,23.76
2023-05-04T13:29:34.652Z,23.43
2023-05-04T13:32:18.655Z,23.35
2023-05-04T13:35:00.583Z,23.22
2023-05-04T13:37:33.192Z,22.94
2023-05-04T13:40:21.837Z,22.60
2023-05-04T13:42:59.936Z,22.43
2023-05-04T13:45:39.495Z,22.15
2023-05-04T13:48:36.808Z,22.19
2023-05-04T13:51:18.191Z,22.18
2023-05-04T13:54:25.180Z,22.46
2023-05-04T13:57:19.258Z,22.62
2023-05-04T14:00:05.725Z,23.22
2023-05-04T14:02:54.169Z,23.45
2023-05-04T14:05:35.467Z,24.00
2023-05-04T14:08:13.500Z,24.32
2023-05-04T14:10:55.786Z,24.16
2023-05-04T14:13:38.405Z,24.00
2023-05-04T14:16:16.361Z,23.88
2023-05-04T14:18:54.348Z,23.75
2023-05-04T14:21:45.196Z,23.61
2023-05-04T14:24:28.775Z,23.65
2023-05-04T14:27:15.408Z,22.84
2023-05-04T14:30:01.736Z,23.01
2023-05-04T14:32:47.361Z,22.86
2023-05-04T14:35:31.865Z,22.76
2023-05-04T14:38:15.142Z,22.42
2023-05-04T14:40:55.423Z,22.14
2023-05-04T14:43:43.656Z,21.64
2023-05-04T14:46:24.494Z,21.42
2023-05-04T14:49:07.585Z,21.39
2023-05-04T14:52:04.596Z,21.23
2023-05-04T14:54:50.911Z,21.67
2023-05-04T14:57:39.204Z,22.29
2023-05-04T15:00:19.705Z,22.80
2023-05-04T15:03:02.271Z,23.35
2023-05-04T15:05:46.770Z,23.46
2023-05-04T15:08:27.500Z,23.81
2023-05-04T15:11:10.011Z,24.06
2023-05-04T15:13:51.710Z,24.42
2023-05-04T15:16:35.463Z,24.58
2023-05-04T15:19:19.229Z,24.55
2023-05-04T15:22:02.890Z,24.45
2023-05-04T15:24:45.819Z,24.39
2023-05-04T15:27:32.917Z,24.50
2023-05-04T15:30:11.790Z,24.59
2023-05-04T15:32:55.076Z,24.32
2023-05-04T15:35:39.154Z,23.51
2023-05-04T15:38:23.284Z,23.51
2023-05-04T15:41:17.767Z,23.64
2023-05-04T15:44:01.333Z,23.94
2023-05-04T15:46:39.837Z,24.10
2023-05-04T15:49:23.280Z,24.34
2023-05-04T15:52:20.152Z,24.86
2023-05-04T15:55:22.682Z,24.65
2023-05-04T15:58:01.882Z,24.83
2023-05-04T16:00:45.356Z,25.21
2023-05-04T16:03:31.802Z,25.14
2023-05-04T16:06:18.434Z,25.11
2023-05-04T16:09:04.164Z,26.29
2023-05-04T16:11:45.854Z,27.24
2023-05-04T16:14:26.546Z,27.84
2023-05-04T16:17:06.914Z,27.58
2023-05-04T16:19:53.645Z,27.85
2023-05-04T16:22:40.418Z,27.65
2023-05-04T16:25:29.527Z,27.56
2023-05-04T16:28:13.380Z,27.80
2023-05-04T16:30:53.656Z,27.54
2023-05-04T16:33:39.169Z,27.66
2023-05-04T16:36:31.717Z,28.73
2023-05-04T16:39:28.834Z,29.02
2023-05-04T16:42:12.326Z,28.88
2023-05-04T16:45:03.563Z,28.51
2023-05-04T16:47:47.155Z,28.61
2023-05-04T16:50:35.229Z,28.60
2023-05-04T16:53:16.527Z,27.56
2023-05-04T16:55:56.828Z,26.08
2023-05-04T16:58:48.671Z,25.09
2023-05-04T17:01:43.171Z,24.47
2023-05-04T17:04:36.799Z,24.07
2023-05-04T17:07:26.536Z,22.91
2023-05-04T17:10:10.483Z,22.39
2023-05-04T17:12:55.597Z,21.66
2023-05-04T17:15:34.188Z,21.18
2023-05-04T17:18:26.565Z,20.68
2023-05-04T17:21:10.334Z,20.55
2023-05-04T17:23:57.555Z,20.43
2023-05-04T17:26:38.329Z,20.22
2023-05-04T17:29:25.667Z,19.93
2023-05-04T17:32:04.236Z,19.64
2023-05-04T17:34:50.429Z,19.37
2023-05-04T17:37:39.673Z,19.24
2023-05-04T17:40:29.174Z,18.98
2023-05-04T17:43:19.202Z,18.48
2023-05-04T17:46:02.329Z,18.47
2023-05-04T17:48:49.034Z,18.39
2023-05-04T17:51:36.217Z,18.31
2023-05-04T17:54:21.117Z,18.17
2023-05-04T17:57:08.231Z,18.07
2023-05-04T17:59:58.780Z,17.90
2023-05-04T18:02:47.249Z,17.72
2023-05-04T18:05:28.991Z,17.54
2023-05-04T18:08:13.612Z,17.38
2023-05-04T18:10:58.602Z,17.18
2023-05-04T18:13:48.405Z,16.95
2023-05-04T18:16:59.576Z,16.66
2023-05-04T18:19:54.078Z,16.44
2023-05-04T18:22:31.774Z,16.18
2023-05-04T18:25:23.014Z,16.06
2023-05-04T18:28:04.736Z,15.96
2023-05-04T18:30:45.219Z,15.83
2023-05-04T18:33:31.583Z,15.72
2023-05-04T18:36:06.853Z,15.62
2023-05-04T18:38:51.800Z,15.54
2023-05-04T18:41:40.693Z,15.55
2023-05-04T18:44:34.002Z,15.36
2023-05-04T18:47:11.833Z,15.30
2023-05-04T18:49:49.508Z,15.27
2023-05-04T18:52:33.224Z,15.21
2023-05-04T18:55:14.466Z,15.13
2023-05-04T18:58:00.463Z,15.06
2023-05-04T19:00:46.525Z,14.85
2023-05-04T19:03:27.771Z,14.73
2023-05-04T19:05:59.663Z,14.60
2023-05-04T19:08:39.256Z,14.60
2023-05-04T19:11:23.610Z,14.61
2023-05-04T19:14:08.280Z,14.54
2023-05-04T19:19:57.773Z,14.37
2023-05-04T19:22:43.518Z,14.26
2023-05-04T19:25:35.258Z,14.22
2023-05-04T19:28:25.271Z,14.16
2023-05-04T19:31:15.658Z,14.02
2023-05-04T19:33:54.095Z,14.06
2023-05-04T19:36:34.831Z,14.00
2023-05-04T19:39:21.528Z,13.90
2023-05-04T19:42:05.536Z,13.76
2023-05-04T19:44:56.247Z,13.67
2023-05-04T19:47:44.541Z,13.66
2023-05-04T19:50:27.892Z,13.57
2023-05-04T19:53:16.757Z,13.51
2023-05-04T19:56:08.251Z,13.49
2023-05-04T19:59:05.195Z,13.57
2023-05-04T20:01:49.668Z,13.57
2023-05-04T20:04:44.707Z,13.76
2023-05-04T20:07:19.742Z,13.98
2023-05-04T20:10:15.739Z,14.15
2023-05-04T20:12:59.190Z,14.33
2023-05-04T20:15:45.309Z,14.56
2023-05-04T20:18:27.242Z,14.76
2023-05-04T20:21:13.356Z,14.91
2023-05-04T20:24:14.197Z,15.07
2023-05-04T20:26:55.171Z,15.20
2023-05-04T20:29:41.528Z,15.31
2023-05-04T20:32:27.785Z,15.32
2023-05-04T20:35:05.813Z,15.36
2023-05-04T20:38:05.395Z,15.38
2023-05-04T20:40:52.001Z,15.29
2023-05-04T20:43:35.830Z,15.26
2023-05-04T20:46:19.610Z,15.30
2023-05-04T20:49:25.253Z,15.19
2023-05-04T20:52:09.124Z,15.17
2023-05-04T20:55:01.527Z,15.12
2023-05-04T20:57:43.289Z,15.06
2023-05-04T21:00:26.542Z,15.03
2023-05-04T21:03:10.613Z,14.98
2023-05-04T21:05:57.187Z,15.13
2023-05-04T21:08:47.218Z,15.01
2023-05-04T21:11:30.951Z,15.06
2023-05-04T21:14:17.608Z,14.97
2023-05-04T21:16:57.708Z,15.03
2023-05-04T21:19:35.431Z,15.07
2023-05-04T21:22:40.426Z,15.08
2023-05-04T21:25:26.976Z,14.95
2023-05-04T21:28:13.817Z,14.93
2023-05-04T21:30:57.132Z,14.87
2023-05-04T21:33:35.500Z,14.84
2023-05-04T21:36:27.480Z,14.65
2023-05-04T21:39:10.846Z,14.62
2023-05-04T21:41:54.256Z,14.42
2023-05-04T21:44:43.407Z,14.33
2023-05-04T21:47:27.212Z,14.21
2023-05-04T21:50:12.469Z,14.25
2023-05-04T21:52:59.254Z,14.27
2023-05-04T21:55:38.208Z,14.18
2023-05-04T21:58:20.534Z,14.18
2023-05-04T22:00:58.387Z,14.28
2023-05-04T22:03:43.152Z,14.20
2023-05-04T22:06:22.200Z,14.12
2023-05-04T22:09:15.379Z,14.16
2023-05-04T22:11:51.828Z,14.10
2023-05-04T22:14:29.628Z,14.02
2023-05-04T22:17:07.796Z,14.17
2023-05-04T22:19:57.194Z,13.96
2023-05-04T22:22:40.890Z,14.01
2023-05-04T22:25:26.517Z,13.98
2023-05-04T22:28:10.389Z,14.19
2023-05-04T22:30:53.827Z,14.20
2023-05-04T22:33:39.552Z,14.14
2023-05-04T22:36:20.189Z,14.13
2023-05-04T22:39:12.254Z,14.10
2023-05-04T22:41:56.255Z,14.08
2023-05-04T22:44:48.193Z,14.16
2023-05-04T22:47:31.453Z,14.09
2023-05-04T22:50:19.869Z,14.04
2023-05-04T22:53:02.784Z,14.03
2023-05-04T22:55:49.398Z,14.07
2023-05-04T22:58:33.095Z,14.08
2023-05-04T23:01:30.321Z,13.94
2023-05-04T23:04:12.200Z,13.92
2023-05-04T23:06:53.251Z,13.90
2023-05-04T23:09:46.082Z,13.93
2023-05-04T23:12:34.402Z,13.88
2023-05-04T23:15:18.164Z,13.90
2023-05-04T23:17:53.132Z,13.77
2023-05-04T23:20:33.930Z,13.79
2023-05-04T23:23:14.608Z,13.70
2023-05-04T23:25:57.912Z,13.60
2023-05-04T23:28:47.273Z,13.55
2023-05-04T23:31:25.281Z,13.66
2023-05-04T23:34:08.604Z,13.56
2023-05-04T23:36:52.367Z,13.43
2023-05-04T23:39:37.921Z,13.40
2023-05-04T23:42:27.730Z,13.44
2023-05-04T23:45:14.008Z,13.47
2023-05-04T23:47:54.579Z,13.24
2023-05-04T23:50:39.100Z,13.25
2023-05-04T23:53:31.105Z,13.20
2023-05-04T23:56:20.053Z,13.14
2023-05-04T23:59:07.942Z,13.15
